Hlavní strana
METAR-TAF:

METAR-TAF

Letiště :

Craiova, Rumunsko

zeměpisná šířka: 44-14N, zeměpisná délka: 023-52E, výška: 192 m

Aktuální stav počasí

Zpráva byla vytvořena před 34 minutami, v 15:30 UTC
Východojihovýchodní vítr 5 kt
Teplota 13°C
Vlhkost vzduchu 62%
Tlak 1027 hPa
Viditelnost 10 km a více
Zataženo ve výšce 3300 ft

METAR: LRCV 201530Z 11005KT 9999 OVC033 13/06 Q1027

Čas: 18:04 (16:04 UTC)

Předpověď počasí

Zpráva byla vytvořena před 2 hodinami a 4 minutami, v 14:00 UTC
Předpověď platná od 20 v 15 UTC do 20 v 24 UTC
Východojihovýchodní vítr 6 kt
Viditelnost 10 km a více
Žádná oblačnost pod 1500 m, nevyskytují se cumulonimby.

TAF: LRCV 201400Z 2015/2024 12006KT CAVOK

Stav a předpovědi počasí z více než 4 000 letišť (zprávy METAR a TAF).

Červené a žluté tečky na mapě představují dostupné meteorologické stanice.

Když kurzor umístíte na tečku, zobrazí se název stanice.

Pak kliknutím zobrazíte stav a předpověď počasí.

Chcete-li změnit mapu, kliknutím na zelené tlačítko se znaménkem +mapu přiblížíte, kliknutím na zelené tlačítko se znaménkem – mapu oddálíte a kliknutím na zelené šipky přejdete na sousední mapy.


METAR-TAF: